sensor_id;sensor_type;location;lat;lon;timestamp;temperature;humidity
24904;DHT22;12960;50.322;11.124;2022-08-19T00:00:59;19.30;99.90
24904;DHT22;12960;50.322;11.124;2022-08-19T00:02:00;19.30;99.90
24904;DHT22;12960;50.322;11.124;2022-08-19T00:03:02;19.30;99.90
24904;DHT22;12960;50.322;11.124;2022-08-19T00:04:06;19.20;99.90
24904;DHT22;12960;50.322;11.124;2022-08-19T00:05:09;19.20;99.90
24904;DHT22;12960;50.322;11.124;2022-08-19T00:06:14;19.20;99.90
24904;DHT22;12960;50.322;11.124;2022-08-19T00:07:15;19.20;99.90
24904;DHT22;12960;50.322;11.124;2022-08-19T00:08:16;19.20;99.90
24904;DHT22;12960;50.322;11.124;2022-08-19T00:09:22;19.20;99.90
24904;DHT22;12960;50.322;11.124;2022-08-19T00:10:23;19.20;99.90
24904;DHT22;12960;50.322;11.124;2022-08-19T00:11:25;19.20;99.90
24904;DHT22;12960;50.322;11.124;2022-08-19T00:12:27;19.20;99.90
24904;DHT22;12960;50.322;11.124;2022-08-19T00:13:31;19.20;99.90
24904;DHT22;12960;50.322;11.124;2022-08-19T00:14:35;19.20;99.90
24904;DHT22;12960;50.322;11.124;2022-08-19T00:15:36;19.20;99.90
24904;DHT22;12960;50.322;11.124;2022-08-19T00:16:43;19.20;99.90
24904;DHT22;12960;50.322;11.124;2022-08-19T00:17:45;19.20;99.90
24904;DHT22;12960;50.322;11.124;2022-08-19T00:18:47;19.10;99.90
24904;DHT22;12960;50.322;11.124;2022-08-19T00:19:48;19.20;99.90
24904;DHT22;12960;50.322;11.124;2022-08-19T00:20:49;19.20;99.90
24904;DHT22;12960;50.322;11.124;2022-08-19T00:21:50;19.20;99.90
24904;DHT22;12960;50.322;11.124;2022-08-19T00:22:51;19.10;99.90
24904;DHT22;12960;50.322;11.124;2022-08-19T00:23:54;19.10;99.90
24904;DHT22;12960;50.322;11.124;2022-08-19T00:25:01;19.10;99.90
24904;DHT22;12960;50.322;11.124;2022-08-19T00:26:06;19.10;99.90
24904;DHT22;12960;50.322;11.124;2022-08-19T00:27:10;19.10;99.90
24904;DHT22;12960;50.322;11.124;2022-08-19T00:28:11;19.10;99.90
24904;DHT22;12960;50.322;11.124;2022-08-19T00:29:15;19.10;99.90
24904;DHT22;12960;50.322;11.124;2022-08-19T00:30:19;19.10;99.90
24904;DHT22;12960;50.322;11.124;2022-08-19T00:31:20;19.10;99.90
24904;DHT22;12960;50.322;11.124;2022-08-19T00:32:21;19.10;99.90
24904;DHT22;12960;50.322;11.124;2022-08-19T00:33:22;19.10;99.90
24904;DHT22;12960;50.322;11.124;2022-08-19T00:34:24;19.20;99.90
24904;DHT22;12960;50.322;11.124;2022-08-19T00:35:29;19.10;99.90
24904;DHT22;12960;50.322;11.124;2022-08-19T00:36:30;19.10;99.90
24904;DHT22;12960;50.322;11.124;2022-08-19T00:37:33;19.10;99.90
24904;DHT22;12960;50.322;11.124;2022-08-19T00:38:37;19.10;99.90
24904;DHT22;12960;50.322;11.124;2022-08-19T00:39:41;19.10;99.90
24904;DHT22;12960;50.322;11.124;2022-08-19T00:40:43;19.10;99.90
24904;DHT22;12960;50.322;11.124;2022-08-19T00:41:48;19.10;99.90
24904;DHT22;12960;50.322;11.124;2022-08-19T00:42:50;19.10;99.90
24904;DHT22;12960;50.322;11.124;2022-08-19T00:45:11;19.10;99.90
24904;DHT22;12960;50.322;11.124;2022-08-19T00:46:15;19.10;99.90
24904;DHT22;12960;50.322;11.124;2022-08-19T00:47:16;19.10;99.90
24904;DHT22;12960;50.322;11.124;2022-08-19T00:48:21;19.10;99.90
24904;DHT22;12960;50.322;11.124;2022-08-19T00:49:27;19.10;99.90
24904;DHT22;12960;50.322;11.124;2022-08-19T00:50:29;19.10;99.90
24904;DHT22;12960;50.322;11.124;2022-08-19T00:51:31;19.10;99.90
24904;DHT22;12960;50.322;11.124;2022-08-19T00:52:37;19.10;99.90
24904;DHT22;12960;50.322;11.124;2022-08-19T00:53:38;19.10;99.90
24904;DHT22;12960;50.322;11.124;2022-08-19T00:54:41;19.10;99.90
24904;DHT22;12960;50.322;11.124;2022-08-19T00:55:46;19.10;99.90
24904;DHT22;12960;50.322;11.124;2022-08-19T00:56:51;19.20;99.90
24904;DHT22;12960;50.322;11.124;2022-08-19T00:58:02;19.10;99.90
24904;DHT22;12960;50.322;11.124;2022-08-19T00:59:09;19.10;99.90
24904;DHT22;12960;50.322;11.124;2022-08-19T01:00:14;19.10;99.90
24904;DHT22;12960;50.322;11.124;2022-08-19T01:01:15;19.20;99.90
24904;DHT22;12960;50.322;11.124;2022-08-19T01:02:16;19.10;99.90
24904;DHT22;12960;50.322;11.124;2022-08-19T01:03:19;19.10;99.90
24904;DHT22;12960;50.322;11.124;2022-08-19T01:04:20;19.10;99.90
24904;DHT22;12960;50.322;11.124;2022-08-19T01:05:24;19.10;99.90
24904;DHT22;12960;50.322;11.124;2022-08-19T01:06:31;19.10;99.90
24904;DHT22;12960;50.322;11.124;2022-08-19T01:07:34;19.10;99.90
24904;DHT22;12960;50.322;11.124;2022-08-19T01:08:35;19.00;99.90
24904;DHT22;12960;50.322;11.124;2022-08-19T01:09:36;19.10;99.90
24904;DHT22;12960;50.322;11.124;2022-08-19T01:10:43;19.00;99.90
24904;DHT22;12960;50.322;11.124;2022-08-19T01:11:45;19.10;99.90
24904;DHT22;12960;50.322;11.124;2022-08-19T01:12:47;19.10;99.90
24904;DHT22;12960;50.322;11.124;2022-08-19T01:13:50;19.10;99.90
24904;DHT22;12960;50.322;11.124;2022-08-19T01:14:53;19.10;99.90
24904;DHT22;12960;50.322;11.124;2022-08-19T01:16:08;19.00;99.90
24904;DHT22;12960;50.322;11.124;2022-08-19T01:17:11;19.10;99.90
24904;DHT22;12960;50.322;11.124;2022-08-19T01:18:19;19.10;99.90
24904;DHT22;12960;50.322;11.124;2022-08-19T01:19:50;19.10;99.90
24904;DHT22;12960;50.322;11.124;2022-08-19T01:20:52;19.10;99.90
24904;DHT22;12960;50.322;11.124;2022-08-19T01:23:20;19.10;99.90
24904;DHT22;12960;50.322;11.124;2022-08-19T01:24:21;19.10;99.90
24904;DHT22;12960;50.322;11.124;2022-08-19T01:25:27;19.10;99.90
24904;DHT22;12960;50.322;11.124;2022-08-19T01:26:39;19.10;99.90
24904;DHT22;12960;50.322;11.124;2022-08-19T01:27:47;19.10;99.90
24904;DHT22;12960;50.322;11.124;2022-08-19T01:28:51;19.00;99.90
24904;DHT22;12960;50.322;11.124;2022-08-19T01:29:52;19.00;99.90
24904;DHT22;12960;50.322;11.124;2022-08-19T01:30:54;19.00;99.90
24904;DHT22;12960;50.322;11.124;2022-08-19T01:31:55;19.00;99.90
24904;DHT22;12960;50.322;11.124;2022-08-19T01:32:57;19.00;99.90
24904;DHT22;12960;50.322;11.124;2022-08-19T01:34:01;19.00;99.90
24904;DHT22;12960;50.322;11.124;2022-08-19T01:35:03;19.00;99.90
24904;DHT22;12960;50.322;11.124;2022-08-19T01:36:11;19.00;99.90
24904;DHT22;12960;50.322;11.124;2022-08-19T01:37:13;19.00;99.90
24904;DHT22;12960;50.322;11.124;2022-08-19T01:38:25;19.00;99.90
24904;DHT22;12960;50.322;11.124;2022-08-19T01:39:26;18.90;99.90
24904;DHT22;12960;50.322;11.124;2022-08-19T01:40:34;18.90;99.90
24904;DHT22;12960;50.322;11.124;2022-08-19T01:41:35;18.90;99.90
24904;DHT22;12960;50.322;11.124;2022-08-19T01:42:36;18.90;99.90
24904;DHT22;12960;50.322;11.124;2022-08-19T01:43:37;18.90;99.90
24904;DHT22;12960;50.322;11.124;2022-08-19T01:44:42;18.90;99.90
24904;DHT22;12960;50.322;11.124;2022-08-19T01:45:46;18.90;99.90
24904;DHT22;12960;50.322;11.124;2022-08-19T01:46:48;18.90;99.90
24904;DHT22;12960;50.322;11.124;2022-08-19T01:47:49;18.90;99.90
24904;DHT22;12960;50.322;11.124;2022-08-19T01:48:50;18.90;99.90
24904;DHT22;12960;50.322;11.124;2022-08-19T01:49:51;18.90;99.90
24904;DHT22;12960;50.322;11.124;2022-08-19T01:50:52;18.90;99.90
24904;DHT22;12960;50.322;11.124;2022-08-19T01:52:00;18.90;99.90
24904;DHT22;12960;50.322;11.124;2022-08-19T01:53:05;18.90;99.90
24904;DHT22;12960;50.322;11.124;2022-08-19T01:54:12;18.90;99.90
24904;DHT22;12960;50.322;11.124;2022-08-19T01:55:17;18.90;99.90
24904;DHT22;12960;50.322;11.124;2022-08-19T01:56:19;18.90;99.90
24904;DHT22;12960;50.322;11.124;2022-08-19T01:57:20;18.90;99.90
24904;DHT22;12960;50.322;11.124;2022-08-19T01:58:25;18.90;99.90
24904;DHT22;12960;50.322;11.124;2022-08-19T01:59:29;18.90;99.90
24904;DHT22;12960;50.322;11.124;2022-08-19T02:00:32;18.90;99.90
24904;DHT22;12960;50.322;11.124;2022-08-19T02:01:33;18.90;99.90
24904;DHT22;12960;50.322;11.124;2022-08-19T02:02:38;18.80;99.90
24904;DHT22;12960;50.322;11.124;2022-08-19T02:03:39;18.80;99.90
24904;DHT22;12960;50.322;11.124;2022-08-19T02:04:40;18.80;99.90
24904;DHT22;12960;50.322;11.124;2022-08-19T02:05:44;18.70;99.90
24904;DHT22;12960;50.322;11.124;2022-08-19T02:06:46;18.70;99.90
24904;DHT22;12960;50.322;11.124;2022-08-19T02:07:47;18.70;99.90
24904;DHT22;12960;50.322;11.124;2022-08-19T02:08:48;18.70;99.90
24904;DHT22;12960;50.322;11.124;2022-08-19T02:09:49;18.70;99.90
24904;DHT22;12960;50.322;11.124;2022-08-19T02:10:54;18.70;99.90
24904;DHT22;12960;50.322;11.124;2022-08-19T02:11:55;18.70;99.90
24904;DHT22;12960;50.322;11.124;2022-08-19T02:12:59;18.70;99.90
24904;DHT22;12960;50.322;11.124;2022-08-19T02:14:05;18.70;99.90
24904;DHT22;12960;50.322;11.124;2022-08-19T02:15:10;18.70;99.90
24904;DHT22;12960;50.322;11.124;2022-08-19T02:16:11;18.80;99.90
24904;DHT22;12960;50.322;11.124;2022-08-19T02:17:12;18.80;99.90
24904;DHT22;12960;50.322;11.124;2022-08-19T02:18:15;18.80;99.90
24904;DHT22;12960;50.322;11.124;2022-08-19T02:19:16;18.80;99.90
24904;DHT22;12960;50.322;11.124;2022-08-19T02:20:18;18.80;99.90
24904;DHT22;12960;50.322;11.124;2022-08-19T02:21:21;18.80;99.90
24904;DHT22;12960;50.322;11.124;2022-08-19T02:22:23;18.80;99.90
24904;DHT22;12960;50.322;11.124;2022-08-19T02:23:26;18.80;99.90
24904;DHT22;12960;50.322;11.124;2022-08-19T02:24:28;18.90;99.90
24904;DHT22;12960;50.322;11.124;2022-08-19T02:25:29;18.90;99.90
24904;DHT22;12960;50.322;11.124;2022-08-19T02:26:33;18.90;99.90
24904;DHT22;12960;50.322;11.124;2022-08-19T02:27:34;18.90;99.90
24904;DHT22;12960;50.322;11.124;2022-08-19T02:28:39;18.90;99.90
24904;DHT22;12960;50.322;11.124;2022-08-19T02:29:40;18.90;99.90
24904;DHT22;12960;50.322;11.124;2022-08-19T02:30:41;18.90;99.90
24904;DHT22;12960;50.322;11.124;2022-08-19T02:31:48;18.80;99.90
24904;DHT22;12960;50.322;11.124;2022-08-19T02:32:53;18.90;99.90
24904;DHT22;12960;50.322;11.124;2022-08-19T02:33:55;18.90;99.90
24904;DHT22;12960;50.322;11.124;2022-08-19T02:34:56;18.90;99.90
24904;DHT22;12960;50.322;11.124;2022-08-19T02:35:57;18.90;99.90
24904;DHT22;12960;50.322;11.124;2022-08-19T02:37:04;18.90;99.90
24904;DHT22;12960;50.322;11.124;2022-08-19T02:38:05;18.90;99.90
24904;DHT22;12960;50.322;11.124;2022-08-19T02:39:24;18.90;99.90
24904;DHT22;12960;50.322;11.124;2022-08-19T02:40:26;18.90;99.90
24904;DHT22;12960;50.322;11.124;2022-08-19T02:41:30;18.90;99.90
24904;DHT22;12960;50.322;11.124;2022-08-19T02:42:31;18.90;99.90
24904;DHT22;12960;50.322;11.124;2022-08-19T02:43:33;19.00;99.90
24904;DHT22;12960;50.322;11.124;2022-08-19T02:44:41;19.00;99.90
24904;DHT22;12960;50.322;11.124;2022-08-19T02:45:42;19.00;99.90
24904;DHT22;12960;50.322;11.124;2022-08-19T02:46:46;19.10;99.90
24904;DHT22;12960;50.322;11.124;2022-08-19T02:47:47;19.20;99.90
24904;DHT22;12960;50.322;11.124;2022-08-19T02:48:49;19.20;99.90
24904;DHT22;12960;50.322;11.124;2022-08-19T02:49:51;19.20;99.90
24904;DHT22;12960;50.322;11.124;2022-08-19T02:50:52;19.30;99.90
24904;DHT22;12960;50.322;11.124;2022-08-19T02:51:55;19.30;99.90
24904;DHT22;12960;50.322;11.124;2022-08-19T02:52:57;19.30;99.90
24904;DHT22;12960;50.322;11.124;2022-08-19T02:53:58;19.30;99.90
24904;DHT22;12960;50.322;11.124;2022-08-19T02:55:01;19.30;99.90
24904;DHT22;12960;50.322;11.124;2022-08-19T02:56:06;19.30;99.90
24904;DHT22;12960;50.322;11.124;2022-08-19T02:57:08;19.30;99.90
24904;DHT22;12960;50.322;11.124;2022-08-19T02:58:09;19.30;99.90
24904;DHT22;12960;50.322;11.124;2022-08-19T02:59:11;19.30;99.90
24904;DHT22;12960;50.322;11.124;2022-08-19T03:00:13;19.30;99.90
24904;DHT22;12960;50.322;11.124;2022-08-19T03:01:32;19.30;99.90
24904;DHT22;12960;50.322;11.124;2022-08-19T03:02:33;19.40;99.90
24904;DHT22;12960;50.322;11.124;2022-08-19T03:03:34;19.40;99.90
24904;DHT22;12960;50.322;11.124;2022-08-19T03:04:35;19.40;99.90
24904;DHT22;12960;50.322;11.124;2022-08-19T03:05:37;19.40;99.90
24904;DHT22;12960;50.322;11.124;2022-08-19T03:06:40;19.40;99.90
24904;DHT22;12960;50.322;11.124;2022-08-19T03:07:44;19.40;99.90
24904;DHT22;12960;50.322;11.124;2022-08-19T03:08:48;19.50;99.90
24904;DHT22;12960;50.322;11.124;2022-08-19T03:09:50;19.40;99.90
24904;DHT22;12960;50.322;11.124;2022-08-19T03:10:57;19.40;99.90
24904;DHT22;12960;50.322;11.124;2022-08-19T03:11:58;19.40;99.90
24904;DHT22;12960;50.322;11.124;2022-08-19T03:13:03;19.50;99.90
24904;DHT22;12960;50.322;11.124;2022-08-19T03:14:05;19.40;99.90
24904;DHT22;12960;50.322;11.124;2022-08-19T03:15:08;19.30;99.90
24904;DHT22;12960;50.322;11.124;2022-08-19T03:16:10;19.30;99.90
24904;DHT22;12960;50.322;11.124;2022-08-19T03:17:11;19.20;99.90
24904;DHT22;12960;50.322;11.124;2022-08-19T03:18:13;19.20;99.90
24904;DHT22;12960;50.322;11.124;2022-08-19T03:19:16;19.10;99.90
24904;DHT22;12960;50.322;11.124;2022-08-19T03:20:17;19.10;99.90
24904;DHT22;12960;50.322;11.124;2022-08-19T03:21:24;19.10;99.90
24904;DHT22;12960;50.322;11.124;2022-08-19T03:22:25;19.00;99.90
24904;DHT22;12960;50.322;11.124;2022-08-19T03:23:26;19.00;99.90
24904;DHT22;12960;50.322;11.124;2022-08-19T03:24:27;18.90;99.90
24904;DHT22;12960;50.322;11.124;2022-08-19T03:25:28;18.90;99.90
24904;DHT22;12960;50.322;11.124;2022-08-19T03:26:30;18.90;99.90
24904;DHT22;12960;50.322;11.124;2022-08-19T03:27:31;18.90;99.90
24904;DHT22;12960;50.322;11.124;2022-08-19T03:28:33;18.80;99.90
24904;DHT22;12960;50.322;11.124;2022-08-19T03:29:38;18.80;99.90
24904;DHT22;12960;50.322;11.124;2022-08-19T03:30:41;18.80;99.90
24904;DHT22;12960;50.322;11.124;2022-08-19T03:31:43;18.90;99.90
24904;DHT22;12960;50.322;11.124;2022-08-19T03:32:48;18.90;99.90
24904;DHT22;12960;50.322;11.124;2022-08-19T03:33:50;18.90;99.90
24904;DHT22;12960;50.322;11.124;2022-08-19T03:34:51;18.90;99.90
24904;DHT22;12960;50.322;11.124;2022-08-19T03:36:15;18.90;99.90
24904;DHT22;12960;50.322;11.124;2022-08-19T03:37:16;18.80;99.90
24904;DHT22;12960;50.322;11.124;2022-08-19T03:38:17;18.90;99.90
24904;DHT22;12960;50.322;11.124;2022-08-19T03:39:18;18.90;99.90
24904;DHT22;12960;50.322;11.124;2022-08-19T03:40:19;18.90;99.90
24904;DHT22;12960;50.322;11.124;2022-08-19T03:41:23;18.90;99.90
24904;DHT22;12960;50.322;11.124;2022-08-19T03:42:24;18.90;99.90
24904;DHT22;12960;50.322;11.124;2022-08-19T03:43:27;18.90;99.90
24904;DHT22;12960;50.322;11.124;2022-08-19T03:44:32;18.90;99.90
24904;DHT22;12960;50.322;11.124;2022-08-19T03:45:34;19.00;99.90
24904;DHT22;12960;50.322;11.124;2022-08-19T03:46:35;18.90;99.90
24904;DHT22;12960;50.322;11.124;2022-08-19T03:47:37;18.90;99.90
24904;DHT22;12960;50.322;11.124;2022-08-19T03:48:44;19.00;99.90
24904;DHT22;12960;50.322;11.124;2022-08-19T03:49:45;19.00;99.90
24904;DHT22;12960;50.322;11.124;2022-08-19T03:50:46;19.00;99.90
24904;DHT22;12960;50.322;11.124;2022-08-19T03:51:48;19.00;99.90
24904;DHT22;12960;50.322;11.124;2022-08-19T03:52:51;19.00;99.90
24904;DHT22;12960;50.322;11.124;2022-08-19T03:53:54;19.00;99.90
24904;DHT22;12960;50.322;11.124;2022-08-19T03:54:56;19.00;99.90
24904;DHT22;12960;50.322;11.124;2022-08-19T03:56:00;18.90;99.90
24904;DHT22;12960;50.322;11.124;2022-08-19T03:57:02;18.90;99.90
24904;DHT22;12960;50.322;11.124;2022-08-19T03:58:07;18.90;99.90
24904;DHT22;12960;50.322;11.124;2022-08-19T03:59:11;18.90;99.90
24904;DHT22;12960;50.322;11.124;2022-08-19T04:00:13;18.80;99.90
24904;DHT22;12960;50.322;11.124;2022-08-19T04:01:19;18.90;99.90
24904;DHT22;12960;50.322;11.124;2022-08-19T04:02:20;18.80;99.90
24904;DHT22;12960;50.322;11.124;2022-08-19T04:03:23;18.90;99.90
24904;DHT22;12960;50.322;11.124;2022-08-19T04:04:25;18.90;99.90
24904;DHT22;12960;50.322;11.124;2022-08-19T04:05:28;19.00;99.90
24904;DHT22;12960;50.322;11.124;2022-08-19T04:06:31;19.00;99.90
24904;DHT22;12960;50.322;11.124;2022-08-19T04:07:33;19.00;99.90
24904;DHT22;12960;50.322;11.124;2022-08-19T04:08:34;19.00;99.90
24904;DHT22;12960;50.322;11.124;2022-08-19T04:09:36;19.00;99.90
24904;DHT22;12960;50.322;11.124;2022-08-19T04:10:37;19.00;99.90
24904;DHT22;12960;50.322;11.124;2022-08-19T04:11:41;19.00;99.90
24904;DHT22;12960;50.322;11.124;2022-08-19T04:12:42;19.00;99.90
24904;DHT22;12960;50.322;11.124;2022-08-19T04:13:43;18.90;99.90
24904;DHT22;12960;50.322;11.124;2022-08-19T04:14:45;18.90;99.90
24904;DHT22;12960;50.322;11.124;2022-08-19T04:15:49;18.90;99.90
24904;DHT22;12960;50.322;11.124;2022-08-19T04:16:53;18.90;99.90
24904;DHT22;12960;50.322;11.124;2022-08-19T04:17:54;18.90;99.90
24904;DHT22;12960;50.322;11.124;2022-08-19T04:18:58;18.80;99.90
24904;DHT22;12960;50.322;11.124;2022-08-19T04:20:00;18.90;99.90
24904;DHT22;12960;50.322;11.124;2022-08-19T04:21:01;18.90;99.90
24904;DHT22;12960;50.322;11.124;2022-08-19T04:22:03;18.80;99.90
24904;DHT22;12960;50.322;11.124;2022-08-19T04:23:07;18.90;99.90
24904;DHT22;12960;50.322;11.124;2022-08-19T04:24:09;18.80;99.90
24904;DHT22;12960;50.322;11.124;2022-08-19T04:25:10;18.80;99.90
24904;DHT22;12960;50.322;11.124;2022-08-19T04:26:23;18.80;99.90
24904;DHT22;12960;50.322;11.124;2022-08-19T04:27:25;18.90;99.90
24904;DHT22;12960;50.322;11.124;2022-08-19T04:28:27;18.90;99.90
24904;DHT22;12960;50.322;11.124;2022-08-19T04:29:28;18.90;99.90
24904;DHT22;12960;50.322;11.124;2022-08-19T04:30:29;18.90;99.90
24904;DHT22;12960;50.322;11.124;2022-08-19T04:31:31;18.90;99.90
24904;DHT22;12960;50.322;11.124;2022-08-19T04:32:36;18.90;99.90
24904;DHT22;12960;50.322;11.124;2022-08-19T04:33:37;18.90;99.90
24904;DHT22;12960;50.322;11.124;2022-08-19T04:34:40;18.90;99.90
24904;DHT22;12960;50.322;11.124;2022-08-19T04:35:45;18.90;99.90
24904;DHT22;12960;50.322;11.124;2022-08-19T04:36:47;18.80;99.90
24904;DHT22;12960;50.322;11.124;2022-08-19T04:37:49;18.90;99.90
24904;DHT22;12960;50.322;11.124;2022-08-19T04:38:54;18.90;99.90
24904;DHT22;12960;50.322;11.124;2022-08-19T04:39:55;18.80;99.90
24904;DHT22;12960;50.322;11.124;2022-08-19T04:41:15;18.80;99.90
24904;DHT22;12960;50.322;11.124;2022-08-19T04:42:35;18.80;99.90
24904;DHT22;12960;50.322;11.124;2022-08-19T04:43:42;18.80;99.90
24904;DHT22;12960;50.322;11.124;2022-08-19T04:44:48;18.80;99.90
24904;DHT22;12960;50.322;11.124;2022-08-19T04:45:49;18.70;99.90
24904;DHT22;12960;50.322;11.124;2022-08-19T04:46:52;18.70;99.90
24904;DHT22;12960;50.322;11.124;2022-08-19T04:47:55;18.70;99.90
24904;DHT22;12960;50.322;11.124;2022-08-19T04:49:04;18.70;99.90
24904;DHT22;12960;50.322;11.124;2022-08-19T04:50:07;18.70;99.90
24904;DHT22;12960;50.322;11.124;2022-08-19T04:51:11;18.70;99.90
24904;DHT22;12960;50.322;11.124;2022-08-19T04:52:13;18.70;99.90
24904;DHT22;12960;50.322;11.124;2022-08-19T04:53:14;18.70;99.90
24904;DHT22;12960;50.322;11.124;2022-08-19T04:54:18;18.60;99.90
24904;DHT22;12960;50.322;11.124;2022-08-19T04:55:23;18.60;99.90
24904;DHT22;12960;50.322;11.124;2022-08-19T04:56:26;18.60;99.90
24904;DHT22;12960;50.322;11.124;2022-08-19T04:57:30;18.60;99.90
24904;DHT22;12960;50.322;11.124;2022-08-19T04:58:32;18.60;99.90
24904;DHT22;12960;50.322;11.124;2022-08-19T04:59:33;18.60;99.90
24904;DHT22;12960;50.322;11.124;2022-08-19T05:00:39;18.70;99.90
24904;DHT22;12960;50.322;11.124;2022-08-19T05:01:42;18.70;99.90
24904;DHT22;12960;50.322;11.124;2022-08-19T05:02:43;18.60;99.90
24904;DHT22;12960;50.322;11.124;2022-08-19T05:03:47;18.70;99.90
24904;DHT22;12960;50.322;11.124;2022-08-19T05:04:57;18.70;99.90
24904;DHT22;12960;50.322;11.124;2022-08-19T05:06:09;18.70;99.90
24904;DHT22;12960;50.322;11.124;2022-08-19T05:07:11;18.70;99.90
24904;DHT22;12960;50.322;11.124;2022-08-19T05:08:13;18.70;99.90
24904;DHT22;12960;50.322;11.124;2022-08-19T05:09:15;18.80;99.90
24904;DHT22;12960;50.322;11.124;2022-08-19T05:10:16;18.80;99.90
24904;DHT22;12960;50.322;11.124;2022-08-19T05:11:24;18.90;99.90
24904;DHT22;12960;50.322;11.124;2022-08-19T05:12:26;18.90;99.90
24904;DHT22;12960;50.322;11.124;2022-08-19T05:13:29;18.90;99.90
24904;DHT22;12960;50.322;11.124;2022-08-19T05:14:30;19.00;99.90
24904;DHT22;12960;50.322;11.124;2022-08-19T05:15:31;19.00;99.90
24904;DHT22;12960;50.322;11.124;2022-08-19T05:16:33;19.00;99.90
24904;DHT22;12960;50.322;11.124;2022-08-19T05:17:34;19.00;99.90
24904;DHT22;12960;50.322;11.124;2022-08-19T05:18:36;19.00;99.90
24904;DHT22;12960;50.322;11.124;2022-08-19T05:19:55;19.10;99.90
24904;DHT22;12960;50.322;11.124;2022-08-19T05:21:19;19.00;99.90
24904;DHT22;12960;50.322;11.124;2022-08-19T05:22:41;19.10;99.90
24904;DHT22;12960;50.322;11.124;2022-08-19T05:23:42;19.10;99.90
24904;DHT22;12960;50.322;11.124;2022-08-19T05:24:45;19.10;99.90
24904;DHT22;12960;50.322;11.124;2022-08-19T05:25:46;19.10;99.90
24904;DHT22;12960;50.322;11.124;2022-08-19T05:26:49;19.20;99.90
24904;DHT22;12960;50.322;11.124;2022-08-19T05:27:50;19.10;99.90
24904;DHT22;12960;50.322;11.124;2022-08-19T05:28:55;19.20;99.90
24904;DHT22;12960;50.322;11.124;2022-08-19T05:29:56;19.20;99.90
24904;DHT22;12960;50.322;11.124;2022-08-19T05:30:57;19.20;99.90
24904;DHT22;12960;50.322;11.124;2022-08-19T05:31:58;19.30;99.90
24904;DHT22;12960;50.322;11.124;2022-08-19T05:33:00;19.30;99.90
24904;DHT22;12960;50.322;11.124;2022-08-19T05:34:02;19.30;99.90
24904;DHT22;12960;50.322;11.124;2022-08-19T05:35:04;19.30;99.90
24904;DHT22;12960;50.322;11.124;2022-08-19T05:36:06;19.30;99.90
24904;DHT22;12960;50.322;11.124;2022-08-19T05:37:08;19.30;99.90
24904;DHT22;12960;50.322;11.124;2022-08-19T05:38:09;19.30;99.90
24904;DHT22;12960;50.322;11.124;2022-08-19T05:39:15;19.30;99.90
24904;DHT22;12960;50.322;11.124;2022-08-19T05:40:17;19.30;99.90
24904;DHT22;12960;50.322;11.124;2022-08-19T05:41:18;19.40;99.90
24904;DHT22;12960;50.322;11.124;2022-08-19T05:42:19;19.40;99.90
24904;DHT22;12960;50.322;11.124;2022-08-19T05:43:21;19.40;99.90
24904;DHT22;12960;50.322;11.124;2022-08-19T05:44:24;19.40;99.90
24904;DHT22;12960;50.322;11.124;2022-08-19T05:45:25;19.40;99.90
24904;DHT22;12960;50.322;11.124;2022-08-19T05:46:26;19.50;99.90
24904;DHT22;12960;50.322;11.124;2022-08-19T05:47:33;19.50;99.90
24904;DHT22;12960;50.322;11.124;2022-08-19T05:48:35;19.50;99.90
24904;DHT22;12960;50.322;11.124;2022-08-19T05:49:39;19.50;99.90
24904;DHT22;12960;50.322;11.124;2022-08-19T05:50:41;19.50;99.90
24904;DHT22;12960;50.322;11.124;2022-08-19T05:51:42;19.50;99.90
24904;DHT22;12960;50.322;11.124;2022-08-19T05:52:43;19.50;99.90
24904;DHT22;12960;50.322;11.124;2022-08-19T05:53:48;19.50;99.90
24904;DHT22;12960;50.322;11.124;2022-08-19T05:54:49;19.50;99.90
24904;DHT22;12960;50.322;11.124;2022-08-19T05:55:51;19.50;99.90
24904;DHT22;12960;50.322;11.124;2022-08-19T05:56:53;19.60;99.90
24904;DHT22;12960;50.322;11.124;2022-08-19T05:57:54;19.60;99.90
24904;DHT22;12960;50.322;11.124;2022-08-19T05:58:58;19.60;99.90
24904;DHT22;12960;50.322;11.124;2022-08-19T05:59:59;19.60;99.90
24904;DHT22;12960;50.322;11.124;2022-08-19T06:01:03;19.60;99.90
24904;DHT22;12960;50.322;11.124;2022-08-19T06:02:09;19.60;99.90
24904;DHT22;12960;50.322;11.124;2022-08-19T06:03:10;19.70;99.90
24904;DHT22;12960;50.322;11.124;2022-08-19T06:04:12;19.60;99.90
24904;DHT22;12960;50.322;11.124;2022-08-19T06:05:14;19.70;99.90
24904;DHT22;12960;50.322;11.124;2022-08-19T06:06:16;19.60;99.90
24904;DHT22;12960;50.322;11.124;2022-08-19T06:07:17;19.60;99.90
24904;DHT22;12960;50.322;11.124;2022-08-19T06:08:19;19.60;99.90
24904;DHT22;12960;50.322;11.124;2022-08-19T06:09:21;19.70;99.90
24904;DHT22;12960;50.322;11.124;2022-08-19T06:10:22;19.70;99.90
24904;DHT22;12960;50.322;11.124;2022-08-19T06:11:42;19.70;99.90
24904;DHT22;12960;50.322;11.124;2022-08-19T06:12:44;19.70;99.90
24904;DHT22;12960;50.322;11.124;2022-08-19T06:13:48;19.70;99.90
24904;DHT22;12960;50.322;11.124;2022-08-19T06:14:51;19.60;99.90
24904;DHT22;12960;50.322;11.124;2022-08-19T06:15:53;19.60;99.90
24904;DHT22;12960;50.322;11.124;2022-08-19T06:16:55;19.60;99.90
24904;DHT22;12960;50.322;11.124;2022-08-19T06:17:56;19.60;99.90
24904;DHT22;12960;50.322;11.124;2022-08-19T06:19:00;19.50;99.90
24904;DHT22;12960;50.322;11.124;2022-08-19T06:20:07;19.50;99.90
24904;DHT22;12960;50.322;11.124;2022-08-19T06:21:09;19.50;99.90
24904;DHT22;12960;50.322;11.124;2022-08-19T06:22:10;19.50;99.90
24904;DHT22;12960;50.322;11.124;2022-08-19T06:23:12;19.50;99.90
24904;DHT22;12960;50.322;11.124;2022-08-19T06:24:16;19.50;99.90
24904;DHT22;12960;50.322;11.124;2022-08-19T06:25:17;19.40;99.90
24904;DHT22;12960;50.322;11.124;2022-08-19T06:26:19;19.40;99.90
24904;DHT22;12960;50.322;11.124;2022-08-19T06:27:21;19.30;99.90
24904;DHT22;12960;50.322;11.124;2022-08-19T06:28:23;19.30;99.90
24904;DHT22;12960;50.322;11.124;2022-08-19T06:29:25;19.30;99.90
24904;DHT22;12960;50.322;11.124;2022-08-19T06:30:27;19.30;99.90
24904;DHT22;12960;50.322;11.124;2022-08-19T06:31:29;19.30;99.90
24904;DHT22;12960;50.322;11.124;2022-08-19T06:32:32;19.30;99.90
24904;DHT22;12960;50.322;11.124;2022-08-19T06:33:33;19.30;99.90
24904;DHT22;12960;50.322;11.124;2022-08-19T06:34:35;19.20;99.90
24904;DHT22;12960;50.322;11.124;2022-08-19T06:35:40;19.20;99.90
24904;DHT22;12960;50.322;11.124;2022-08-19T06:36:44;19.20;99.90